Americus, Georgia
Current Conditions -  °F | °C
As of 10:55 AM on Friday 28 Nov 2014 (Local Time) from KACJ Reporting Station
Clear Clear  
Wind Chill:   Ceiling: Unl
Heat Index:   Visibility: 10mi
Dew Point: -3°   Wind: 0mph
Humidity: 61%   Direction: NA
Pressure: 30.45"   Gusts: NA
Location:  32.07°N, 84.23°W
Report Text: KACJ 281555Z AUTO 00000KT 10SM CLR 04/M03 A3045 RMK AO2
Loading
Personal Weather Stations






























Interactive Weather Map New forecast layout! Learn more

10-Day Weather Forecast

Advertisements
Track Severe Weather on mobile